createdAt,value
2022-12-08T00:01:28.121Z,8.68
2022-12-08T00:03:59.205Z,17.52
2022-12-08T00:06:53.451Z,12.60
2022-12-08T00:09:39.437Z,12.25
2022-12-08T00:12:15.392Z,17.70
2022-12-08T00:14:45.064Z,14.93
2022-12-08T00:17:14.364Z,16.23
2022-12-08T00:19:42.936Z,12.27
2022-12-08T00:22:11.742Z,9.80
2022-12-08T00:24:40.415Z,9.15
2022-12-08T00:27:09.365Z,10.35
2022-12-08T00:29:37.062Z,12.43
2022-12-08T00:32:05.120Z,12.15
2022-12-08T00:34:33.523Z,9.60
2022-12-08T00:37:00.816Z,13.05
2022-12-08T00:39:28.234Z,10.15
2022-12-08T00:42:13.805Z,9.98
2022-12-08T00:44:46.109Z,15.32
2022-12-08T00:47:14.449Z,8.13
2022-12-08T00:49:41.701Z,11.57
2022-12-08T00:52:08.921Z,14.15
2022-12-08T00:54:35.929Z,12.02
2022-12-08T00:59:30.030Z,16.63
2022-12-08T01:01:57.456Z,12.25
2022-12-08T01:04:24.709Z,11.98
2022-12-08T01:06:52.840Z,11.93
2022-12-08T01:11:47.574Z,11.52
2022-12-08T01:14:15.501Z,10.27
2022-12-08T01:16:43.008Z,17.30
2022-12-08T01:19:12.251Z,13.70
2022-12-08T01:21:40.542Z,16.05
2022-12-08T01:24:10.781Z,16.23
2022-12-08T01:26:37.906Z,14.93
2022-12-08T01:29:05.339Z,12.70
2022-12-08T01:31:32.369Z,10.75
2022-12-08T01:36:28.796Z,13.60
2022-12-08T01:38:58.454Z,11.00
2022-12-08T01:41:28.290Z,11.50
2022-12-08T01:44:02.081Z,9.50
2022-12-08T01:46:32.312Z,13.48
2022-12-08T01:49:04.778Z,13.98
2022-12-08T01:51:36.217Z,15.85
2022-12-08T01:54:06.004Z,8.55
2022-12-08T01:56:43.605Z,14.30
2022-12-08T01:59:12.959Z,10.82
2022-12-08T02:01:40.271Z,12.40
2022-12-08T02:04:07.299Z,16.58
2022-12-08T02:06:40.066Z,10.60
2022-12-08T02:09:08.429Z,12.35
2022-12-08T02:11:35.558Z,15.23
2022-12-08T02:14:08.445Z,15.88
2022-12-08T02:17:05.242Z,16.92
2022-12-08T02:19:35.173Z,10.45
2022-12-08T02:22:16.863Z,15.00
2022-12-08T02:24:53.112Z,12.07
2022-12-08T02:27:58.168Z,12.27
2022-12-08T02:30:56.248Z,22.45
2022-12-08T02:33:57.429Z,12.07
2022-12-08T02:36:40.927Z,23.38
2022-12-08T02:39:42.081Z,13.63
2022-12-08T02:42:21.416Z,9.13
2022-12-08T02:44:51.970Z,17.08
2022-12-08T02:47:23.485Z,18.10
2022-12-08T02:49:50.696Z,13.48
2022-12-08T02:52:18.153Z,13.05
2022-12-08T02:54:55.930Z,18.00
2022-12-08T03:00:14.446Z,13.43
2022-12-08T03:03:02.959Z,9.70
2022-12-08T03:05:51.400Z,15.60
2022-12-08T03:08:51.924Z,11.38
2022-12-08T03:11:30.242Z,12.13
2022-12-08T03:14:01.202Z,14.73
2022-12-08T03:16:31.005Z,12.50
2022-12-08T03:19:09.356Z,12.25
2022-12-08T03:21:39.054Z,14.63
2022-12-08T03:24:08.305Z,19.00
2022-12-08T03:26:39.160Z,9.75
2022-12-08T03:29:09.131Z,14.25
2022-12-08T03:31:42.073Z,16.73
2022-12-08T03:34:12.315Z,9.75
2022-12-08T03:36:41.007Z,11.85
2022-12-08T03:39:10.324Z,13.60
2022-12-08T03:41:38.147Z,10.85
2022-12-08T03:44:05.484Z,12.52
2022-12-08T03:46:33.855Z,14.90
2022-12-08T03:49:01.685Z,11.55
2022-12-08T03:54:10.257Z,15.75
2022-12-08T03:56:41.281Z,7.53
2022-12-08T03:59:09.841Z,10.57
2022-12-08T04:01:37.060Z,16.33
2022-12-08T04:04:04.370Z,24.15
2022-12-08T04:06:31.714Z,13.18
2022-12-08T04:11:40.939Z,17.25
2022-12-08T04:16:35.559Z,17.80
2022-12-08T04:19:04.162Z,11.75
2022-12-08T04:21:47.121Z,17.65
2022-12-08T04:24:14.613Z,11.55
2022-12-08T04:26:41.959Z,21.60
2022-12-08T04:29:10.917Z,15.90
2022-12-08T04:31:42.953Z,17.80
2022-12-08T04:34:17.711Z,13.40
2022-12-08T04:39:15.075Z,15.82
2022-12-08T04:41:43.523Z,9.13
2022-12-08T04:46:54.555Z,20.02
2022-12-08T04:49:22.103Z,16.95
2022-12-08T04:54:31.402Z,19.60
2022-12-08T04:59:42.311Z,13.52
2022-12-08T05:02:09.797Z,16.98
2022-12-08T05:04:38.198Z,16.67
2022-12-08T05:07:06.022Z,19.90
2022-12-08T05:12:16.025Z,12.85
2022-12-08T05:17:31.119Z,11.43
2022-12-08T05:22:48.751Z,16.75
2022-12-08T05:25:16.105Z,20.27
2022-12-08T05:27:43.572Z,22.42
2022-12-08T05:30:10.895Z,11.10
2022-12-08T05:35:19.640Z,12.25
2022-12-08T05:37:59.111Z,15.02
2022-12-08T05:40:26.317Z,15.00
2022-12-08T05:45:45.192Z,17.70
2022-12-08T05:48:13.567Z,10.52
2022-12-08T05:50:45.631Z,15.57
2022-12-08T05:53:12.887Z,12.85
2022-12-08T05:58:24.091Z,21.27
2022-12-08T06:00:51.675Z,15.35
2022-12-08T06:03:19.055Z,9.30
2022-12-08T06:05:47.161Z,14.30
2022-12-08T06:08:15.152Z,11.80
2022-12-08T06:10:43.961Z,10.35
2022-12-08T06:13:11.326Z,14.23
2022-12-08T06:15:39.216Z,19.17
2022-12-08T06:18:06.948Z,20.80
2022-12-08T06:20:34.696Z,12.30
2022-12-08T06:23:02.244Z,14.45
2022-12-08T06:25:29.301Z,13.10
2022-12-08T06:28:06.238Z,10.32
2022-12-08T06:30:33.603Z,16.70
2022-12-08T06:33:00.611Z,13.45
2022-12-08T06:35:27.696Z,13.27
2022-12-08T06:37:55.801Z,13.48
2022-12-08T06:40:23.225Z,13.88
2022-12-08T06:42:50.315Z,14.20
2022-12-08T06:47:45.954Z,11.82
2022-12-08T06:52:53.250Z,10.02
2022-12-08T06:55:57.260Z,13.55
2022-12-08T06:58:14.053Z,10.70
2022-12-08T07:00:42.327Z,14.80
2022-12-08T07:03:11.739Z,18.60
2022-12-08T07:05:39.574Z,13.07
2022-12-08T07:08:08.844Z,11.20
2022-12-08T07:10:37.301Z,10.70
2022-12-08T07:13:04.571Z,13.68
2022-12-08T07:15:31.705Z,13.88
2022-12-08T07:20:28.344Z,14.95
2022-12-08T07:22:56.065Z,11.63
2022-12-08T07:25:24.057Z,17.33
2022-12-08T07:27:51.862Z,8.50
2022-12-08T07:30:19.554Z,17.10
2022-12-08T07:32:47.981Z,14.70
2022-12-08T07:35:15.230Z,12.85
2022-12-08T07:40:10.236Z,21.00
2022-12-08T07:42:37.661Z,12.60
2022-12-08T07:45:05.439Z,13.43
2022-12-08T07:47:32.604Z,10.50
2022-12-08T07:52:26.553Z,13.65
2022-12-08T07:57:22.017Z,15.65
2022-12-08T07:59:49.077Z,13.18
2022-12-08T08:07:36.814Z,12.80
2022-12-08T08:10:05.582Z,16.90
2022-12-08T08:12:33.473Z,11.27
2022-12-08T08:15:10.499Z,13.00
2022-12-08T08:17:38.409Z,9.20
2022-12-08T08:20:09.224Z,10.30
2022-12-08T08:22:36.952Z,16.60
2022-12-08T08:25:04.798Z,18.27
2022-12-08T08:27:31.945Z,13.75
2022-12-08T08:29:59.835Z,9.90
2022-12-08T08:32:26.868Z,14.13
2022-12-08T08:37:21.325Z,14.80
2022-12-08T08:39:49.094Z,10.60
2022-12-08T08:42:16.906Z,13.65
2022-12-08T08:44:43.999Z,16.05
2022-12-08T08:49:38.921Z,16.33
2022-12-08T08:52:06.651Z,16.45
2022-12-08T08:54:35.071Z,11.20
2022-12-08T08:57:03.793Z,9.40
2022-12-08T08:59:39.792Z,14.48
2022-12-08T09:02:07.511Z,16.65
2022-12-08T09:04:35.201Z,16.23
2022-12-08T09:07:02.293Z,16.48
2022-12-08T09:09:36.730Z,12.00
2022-12-08T09:12:06.707Z,17.88
2022-12-08T09:14:34.828Z,13.88
2022-12-08T09:17:02.352Z,13.27
2022-12-08T09:19:30.005Z,17.05
2022-12-08T09:21:59.229Z,10.73
2022-12-08T09:24:29.415Z,17.15
2022-12-08T09:26:56.743Z,13.45
2022-12-08T09:29:26.863Z,15.65
2022-12-08T09:31:57.385Z,13.95
2022-12-08T09:34:34.457Z,13.30
2022-12-08T09:37:02.572Z,14.98
2022-12-08T09:42:14.588Z,12.15
2022-12-08T09:45:13.784Z,15.57
2022-12-08T09:47:45.930Z,13.93
2022-12-08T09:50:19.373Z,14.20
2022-12-08T09:52:59.939Z,15.50
2022-12-08T09:55:52.918Z,14.63
2022-12-08T09:58:45.637Z,11.55
2022-12-08T10:01:20.234Z,13.40
2022-12-08T10:03:47.942Z,10.07
2022-12-08T10:06:33.812Z,15.95
2022-12-08T10:09:37.401Z,10.73
2022-12-08T10:12:16.925Z,14.73
2022-12-08T10:14:56.640Z,17.67
2022-12-08T10:17:41.642Z,18.73
2022-12-08T10:20:46.636Z,27.30
2022-12-08T10:23:14.569Z,18.02
2022-12-08T10:25:46.346Z,14.18
2022-12-08T10:28:16.091Z,13.75
2022-12-08T10:30:43.678Z,16.95
2022-12-08T10:33:20.137Z,8.57
2022-12-08T10:35:49.057Z,18.00
2022-12-08T10:38:36.306Z,18.25
2022-12-08T10:41:09.617Z,21.33
2022-12-08T10:43:42.781Z,16.77
2022-12-08T10:46:18.817Z,18.65
2022-12-08T10:49:10.596Z,12.50
2022-12-08T10:51:43.431Z,14.00
2022-12-08T10:54:34.322Z,16.67
2022-12-08T10:57:01.632Z,15.10
2022-12-08T10:59:29.388Z,11.30
2022-12-08T11:01:57.707Z,13.45
2022-12-08T11:04:39.205Z,15.45
2022-12-08T11:07:12.085Z,13.95
2022-12-08T11:12:33.127Z,15.65
2022-12-08T11:15:05.977Z,13.23
2022-12-08T11:17:41.421Z,14.57
2022-12-08T11:20:11.645Z,20.00
2022-12-08T11:22:43.134Z,15.07
2022-12-08T11:25:27.892Z,14.80
2022-12-08T11:27:59.823Z,15.45
2022-12-08T11:30:42.661Z,20.30
2022-12-08T11:36:05.103Z,16.50
2022-12-08T11:38:34.362Z,17.67
2022-12-08T11:41:15.792Z,19.23
2022-12-08T11:43:52.005Z,13.55
2022-12-08T11:46:43.087Z,18.90
2022-12-08T11:49:13.582Z,10.75
2022-12-08T11:54:34.737Z,12.52
2022-12-08T11:57:06.316Z,14.93
2022-12-08T11:59:44.576Z,12.18
2022-12-08T12:04:45.452Z,16.15
2022-12-08T12:10:12.483Z,13.25
2022-12-08T12:13:13.033Z,12.85
2022-12-08T12:15:46.597Z,16.90
2022-12-08T12:18:26.628Z,16.23
2022-12-08T12:20:56.599Z,20.55
2022-12-08T12:23:40.793Z,17.80
2022-12-08T12:26:17.221Z,14.73
2022-12-08T12:29:06.269Z,17.88
2022-12-08T12:31:48.745Z,11.75
2022-12-08T12:34:31.376Z,12.57
2022-12-08T12:37:11.197Z,19.13
2022-12-08T12:39:58.532Z,17.98
2022-12-08T12:42:46.959Z,18.25
2022-12-08T12:45:18.330Z,10.30
2022-12-08T12:47:52.568Z,19.75
2022-12-08T12:53:16.737Z,16.45
2022-12-08T12:55:57.763Z,15.13
2022-12-08T12:58:30.402Z,12.10
2022-12-08T13:01:13.606Z,16.00
2022-12-08T13:03:44.706Z,17.65
2022-12-08T13:06:16.480Z,10.38
2022-12-08T13:08:54.103Z,11.25
2022-12-08T13:11:23.415Z,17.98
2022-12-08T13:14:05.974Z,14.88
2022-12-08T13:16:39.636Z,13.05
2022-12-08T13:19:16.488Z,10.68
2022-12-08T13:30:37.893Z,18.30
2022-12-08T13:33:19.265Z,9.50
2022-12-08T13:36:23.238Z,13.32
2022-12-08T13:38:56.707Z,13.50
2022-12-08T13:41:37.187Z,20.25
2022-12-08T13:47:32.958Z,13.45
2022-12-08T14:01:33.441Z,17.63
2022-12-08T14:06:52.099Z,14.52
2022-12-08T14:09:23.265Z,16.75
2022-12-08T14:12:04.420Z,20.35
2022-12-08T14:17:20.004Z,16.92
2022-12-08T14:25:28.240Z,18.08
2022-12-08T14:28:05.930Z,13.20
2022-12-08T14:30:36.877Z,12.20
2022-12-08T14:35:56.088Z,15.73
2022-12-08T14:38:25.845Z,10.73
2022-12-08T14:41:08.505Z,16.23
2022-12-08T14:43:36.229Z,13.02
2022-12-08T14:46:19.812Z,20.67
2022-12-08T14:49:02.799Z,17.05
2022-12-08T14:51:35.111Z,17.63
2022-12-08T14:54:18.515Z,16.42
2022-12-08T14:59:31.837Z,12.50
2022-12-08T15:02:24.419Z,17.30
2022-12-08T15:04:59.913Z,18.00
2022-12-08T15:07:32.246Z,14.40
2022-12-08T15:13:05.463Z,20.58
2022-12-08T15:18:37.724Z,21.98
2022-12-08T15:21:13.620Z,15.93
2022-12-08T15:23:50.498Z,28.00
2022-12-08T15:29:26.223Z,18.83
2022-12-08T15:32:01.572Z,16.98
2022-12-08T15:34:36.028Z,22.73
2022-12-08T15:37:04.772Z,17.08
2022-12-08T15:42:19.789Z,18.20
2022-12-08T15:44:47.684Z,24.35
2022-12-08T15:47:24.401Z,16.85
2022-12-08T15:50:20.200Z,19.55
2022-12-08T15:55:38.733Z,26.05
2022-12-08T16:00:52.881Z,18.30
2022-12-08T16:09:23.634Z,14.30
2022-12-08T16:12:18.323Z,18.20
2022-12-08T16:17:32.815Z,22.73
2022-12-08T16:25:36.343Z,25.75
2022-12-08T16:33:45.756Z,14.48
2022-12-08T16:36:22.612Z,19.88
2022-12-08T16:42:21.457Z,20.25
2022-12-08T16:47:33.774Z,24.02
2022-12-08T16:52:52.076Z,28.13
2022-12-08T17:06:20.264Z,31.33
2022-12-08T17:11:42.604Z,22.95
2022-12-08T17:35:53.645Z,29.08
2022-12-08T17:38:35.586Z,25.83
2022-12-08T17:57:48.477Z,29.92
2022-12-08T18:03:06.455Z,32.10
2022-12-08T18:05:44.916Z,34.70
2022-12-08T18:16:25.152Z,31.60
2022-12-08T18:24:23.196Z,41.13
2022-12-08T18:26:52.459Z,30.27
2022-12-08T18:29:21.006Z,37.28
2022-12-08T18:31:49.136Z,36.38
2022-12-08T18:34:19.025Z,37.47
2022-12-08T18:36:46.258Z,33.35
2022-12-08T18:39:26.552Z,50.13
2022-12-08T18:41:55.721Z,37.50
2022-12-08T18:44:23.226Z,43.00
2022-12-08T18:46:51.209Z,31.15
2022-12-08T18:49:20.285Z,34.88
2022-12-08T18:51:47.755Z,41.72
2022-12-08T18:54:15.330Z,52.92
2022-12-08T18:56:42.553Z,47.20
2022-12-08T19:01:39.951Z,31.73
2022-12-08T19:04:27.960Z,40.75
2022-12-08T19:06:56.586Z,33.33
2022-12-08T19:09:35.082Z,37.95
2022-12-08T19:12:02.554Z,61.28
2022-12-08T19:14:40.263Z,58.85
2022-12-08T19:22:36.703Z,39.00
2022-12-08T19:25:05.098Z,42.35
2022-12-08T19:27:36.729Z,37.20
2022-12-08T19:30:04.541Z,32.17
2022-12-08T19:35:15.414Z,27.70
2022-12-08T19:37:43.109Z,42.03
2022-12-08T19:40:31.961Z,50.53
2022-12-08T19:43:18.246Z,37.92
2022-12-08T19:45:45.478Z,46.15
2022-12-08T19:48:14.239Z,39.03
2022-12-08T19:50:42.500Z,44.75
2022-12-08T19:53:14.950Z,45.78
2022-12-08T19:55:44.117Z,27.73
2022-12-08T20:00:56.772Z,52.67
2022-12-08T20:03:23.945Z,54.50
2022-12-08T20:05:53.347Z,42.88
2022-12-08T20:08:20.856Z,45.38
2022-12-08T20:10:48.185Z,44.55
2022-12-08T20:13:35.564Z,48.97
2022-12-08T20:16:02.761Z,49.00
2022-12-08T20:18:30.067Z,43.05
2022-12-08T20:20:58.350Z,44.75
2022-12-08T20:23:25.686Z,51.08
2022-12-08T20:25:53.233Z,37.67
2022-12-08T20:28:21.149Z,46.03
2022-12-08T20:30:49.724Z,41.28
2022-12-08T20:33:18.603Z,41.67
2022-12-08T20:35:47.680Z,28.77
2022-12-08T20:38:14.933Z,41.05
2022-12-08T20:40:47.429Z,41.25
2022-12-08T20:43:14.977Z,42.13
2022-12-08T20:45:42.083Z,43.65
2022-12-08T20:50:36.244Z,42.85
2022-12-08T20:53:04.214Z,44.60
2022-12-08T20:55:31.503Z,43.28
2022-12-08T20:57:58.850Z,48.47
2022-12-08T21:00:27.381Z,53.03
2022-12-08T21:02:56.746Z,50.72
2022-12-08T21:05:25.429Z,53.70
2022-12-08T21:07:53.085Z,48.38
2022-12-08T21:10:20.404Z,52.28
2022-12-08T21:12:47.676Z,38.00
2022-12-08T21:17:41.966Z,48.10
2022-12-08T21:20:10.129Z,48.45
2022-12-08T21:22:37.713Z,44.92
2022-12-08T21:25:07.368Z,48.38
2022-12-08T21:27:34.614Z,47.10
2022-12-08T21:32:32.450Z,39.75
2022-12-08T21:34:59.622Z,50.05
2022-12-08T21:39:53.789Z,41.60
2022-12-08T21:45:07.765Z,31.05
2022-12-08T21:47:36.737Z,36.65
2022-12-08T21:50:04.669Z,47.65
2022-12-08T21:52:32.841Z,39.70
2022-12-08T21:55:00.419Z,45.40
2022-12-08T21:57:27.585Z,40.53
2022-12-08T22:02:23.226Z,34.30
2022-12-08T22:04:52.942Z,43.55
2022-12-08T22:07:34.979Z,44.13
2022-12-08T22:10:02.551Z,40.30
2022-12-08T22:12:31.496Z,40.25
2022-12-08T22:14:58.827Z,46.13
2022-12-08T22:17:27.295Z,31.70
2022-12-08T22:19:54.431Z,49.80
2022-12-08T22:24:49.140Z,39.13
2022-12-08T22:27:17.326Z,40.30
2022-12-08T22:29:45.239Z,44.42
2022-12-08T22:32:12.449Z,38.03
2022-12-08T22:34:39.651Z,48.45
2022-12-08T22:37:07.233Z,32.55
2022-12-08T22:39:35.842Z,45.72
2022-12-08T22:42:03.355Z,40.15
2022-12-08T22:44:30.630Z,46.90
2022-12-08T22:46:57.882Z,43.55
2022-12-08T22:49:25.866Z,45.08
2022-12-08T22:51:53.703Z,39.38
2022-12-08T22:54:22.076Z,48.38
2022-12-08T22:56:49.265Z,47.53
2022-12-08T23:01:44.891Z,34.78
2022-12-08T23:04:17.377Z,39.17
2022-12-08T23:06:45.111Z,39.63
2022-12-08T23:09:12.608Z,46.58
2022-12-08T23:11:40.191Z,47.63
2022-12-08T23:14:07.430Z,48.95
2022-12-08T23:16:34.948Z,47.47
2022-12-08T23:19:02.424Z,32.08
2022-12-08T23:21:29.835Z,49.72
2022-12-08T23:23:57.233Z,39.80
2022-12-08T23:26:27.322Z,43.95
2022-12-08T23:28:55.081Z,46.53
2022-12-08T23:31:23.772Z,49.80
2022-12-08T23:33:52.437Z,46.03
2022-12-08T23:36:25.775Z,55.58
2022-12-08T23:38:54.557Z,44.80
2022-12-08T23:41:22.189Z,37.60
2022-12-08T23:43:51.996Z,44.13
2022-12-08T23:46:21.938Z,31.50
2022-12-08T23:48:50.615Z,44.80
2022-12-08T23:51:18.450Z,45.35
2022-12-08T23:53:46.347Z,41.50
2022-12-08T23:56:16.820Z,35.13
2022-12-08T23:58:45.124Z,45.55
